Terminal Aerodrome Forecast
Issued by NWS

Home | Current Version | Previous Version | Text Only | Print | Product List | Glossary On
Versions: 1 2 3 4 5 6 7 8 9 10 11 12 13 14 15 16 17 18 19 20 21 22 23 24
222
FTUS45 KGJT 221720
TAFCNY
TAF
KCNY 221720Z 2218/2318 VRB03KT P6SM FEW110 SCT250
     FM222000 29010KT P6SM FEW100 SCT250
     FM222300 32008KT P6SM FEW090 SCT250
     FM230600 01006KT P6SM FEW080 FEW250
     FM231200 09007KT P6SM FEW070 FEW250=

USA.gov is the U.S. government's official web portal to all federal, state and local government web resources and services.